sensor_id;sensor_type;location;lat;lon;timestamp;noise_LAeq;noise_LA_min;noise_LA_max;noise_LA01;noise_LA95
66399;Laerm;54877;51.504;3.894;2024-01-11T00:00:08;33.84;32.49;35.26;;
66399;Laerm;54877;51.504;3.894;2024-01-11T00:02:34;33.87;32.09;38.62;;
66399;Laerm;54877;51.504;3.894;2024-01-11T00:04:59;33.78;32.48;34.97;;
66399;Laerm;54877;51.504;3.894;2024-01-11T00:07:24;33.82;32.18;36.42;;
66399;Laerm;54877;51.504;3.894;2024-01-11T00:09:50;33.83;32.30;40.85;;
66399;Laerm;54877;51.504;3.894;2024-01-11T00:12:15;33.90;32.50;45.38;;
66399;Laerm;54877;51.504;3.894;2024-01-11T00:14:40;33.83;32.52;35.26;;
66399;Laerm;54877;51.504;3.894;2024-01-11T00:17:06;34.07;32.63;40.48;;
66399;Laerm;54877;51.504;3.894;2024-01-11T00:19:31;33.83;32.49;35.11;;
66399;Laerm;54877;51.504;3.894;2024-01-11T00:21:57;33.83;32.23;35.82;;
66399;Laerm;54877;51.504;3.894;2024-01-11T00:24:22;34.14;32.47;39.48;;
66399;Laerm;54877;51.504;3.894;2024-01-11T00:26:48;33.86;32.68;35.63;;
66399;Laerm;54877;51.504;3.894;2024-01-11T00:29:13;33.97;32.57;37.71;;
66399;Laerm;54877;51.504;3.894;2024-01-11T00:31:38;33.83;32.49;37.52;;
66399;Laerm;54877;51.504;3.894;2024-01-11T00:34:04;33.84;32.56;35.30;;
66399;Laerm;54877;51.504;3.894;2024-01-11T00:36:29;33.85;32.33;34.99;;
66399;Laerm;54877;51.504;3.894;2024-01-11T00:38:55;33.86;32.45;38.19;;
66399;Laerm;54877;51.504;3.894;2024-01-11T00:41:20;33.91;32.59;35.39;;
66399;Laerm;54877;51.504;3.894;2024-01-11T00:43:46;33.80;32.54;35.15;;
66399;Laerm;54877;51.504;3.894;2024-01-11T00:46:11;33.84;32.50;35.20;;
66399;Laerm;54877;51.504;3.894;2024-01-11T00:48:37;33.89;32.14;36.26;;
66399;Laerm;54877;51.504;3.894;2024-01-11T00:51:04;33.92;32.68;35.26;;
66399;Laerm;54877;51.504;3.894;2024-01-11T00:53:30;33.84;32.42;36.81;;
66399;Laerm;54877;51.504;3.894;2024-01-11T00:55:57;33.86;32.70;35.00;;
66399;Laerm;54877;51.504;3.894;2024-01-11T00:58:22;33.84;32.60;35.94;;
66399;Laerm;54877;51.504;3.894;2024-01-11T01:00:48;33.88;32.50;36.38;;
66399;Laerm;54877;51.504;3.894;2024-01-11T01:03:14;33.98;32.63;35.41;;
66399;Laerm;54877;51.504;3.894;2024-01-11T01:05:40;33.86;32.41;35.07;;
66399;Laerm;54877;51.504;3.894;2024-01-11T01:08:06;33.86;31.96;35.02;;
66399;Laerm;54877;51.504;3.894;2024-01-11T01:10:31;33.86;32.54;35.03;;
66399;Laerm;54877;51.504;3.894;2024-01-11T01:12:56;33.87;32.49;35.01;;
66399;Laerm;54877;51.504;3.894;2024-01-11T01:15:22;33.85;32.61;35.20;;
66399;Laerm;54877;51.504;3.894;2024-01-11T01:17:47;33.84;32.52;35.45;;
66399;Laerm;54877;51.504;3.894;2024-01-11T01:20:12;33.82;32.59;35.41;;
66399;Laerm;54877;51.504;3.894;2024-01-11T01:22:38;33.82;32.32;34.95;;
66399;Laerm;54877;51.504;3.894;2024-01-11T01:25:03;33.82;32.55;35.27;;
66399;Laerm;54877;51.504;3.894;2024-01-11T01:27:29;33.82;32.46;35.28;;
66399;Laerm;54877;51.504;3.894;2024-01-11T01:29:54;48.84;32.59;67.79;;
66399;Laerm;54877;51.504;3.894;2024-01-11T01:32:19;33.86;32.40;35.12;;
66399;Laerm;54877;51.504;3.894;2024-01-11T01:34:45;33.86;32.30;37.78;;
66399;Laerm;54877;51.504;3.894;2024-01-11T01:37:10;34.08;32.49;37.17;;
66399;Laerm;54877;51.504;3.894;2024-01-11T01:39:38;33.82;32.34;35.07;;
66399;Laerm;54877;51.504;3.894;2024-01-11T01:42:04;33.82;32.35;35.02;;
66399;Laerm;54877;51.504;3.894;2024-01-11T01:44:30;33.85;32.26;35.04;;
66399;Laerm;54877;51.504;3.894;2024-01-11T01:46:55;33.86;32.55;35.11;;
66399;Laerm;54877;51.504;3.894;2024-01-11T01:49:21;33.87;32.48;35.19;;
66399;Laerm;54877;51.504;3.894;2024-01-11T01:51:47;33.88;32.67;35.15;;
66399;Laerm;54877;51.504;3.894;2024-01-11T01:54:14;33.88;32.60;35.18;;
66399;Laerm;54877;51.504;3.894;2024-01-11T01:56:40;33.90;32.50;35.15;;
66399;Laerm;54877;51.504;3.894;2024-01-11T01:59:05;33.95;32.52;35.34;;
66399;Laerm;54877;51.504;3.894;2024-01-11T02:01:31;33.99;32.69;35.50;;
66399;Laerm;54877;51.504;3.894;2024-01-11T02:03:57;33.98;32.50;37.44;;
66399;Laerm;54877;51.504;3.894;2024-01-11T02:06:25;33.90;32.71;35.55;;
66399;Laerm;54877;51.504;3.894;2024-01-11T02:08:51;33.97;32.59;35.30;;
66399;Laerm;54877;51.504;3.894;2024-01-11T02:11:20;33.96;32.55;35.29;;
66399;Laerm;54877;51.504;3.894;2024-01-11T02:13:46;34.01;32.48;35.41;;
66399;Laerm;54877;51.504;3.894;2024-01-11T02:16:13;33.89;32.31;35.40;;
66399;Laerm;54877;51.504;3.894;2024-01-11T02:18:38;33.95;32.64;35.28;;
66399;Laerm;54877;51.504;3.894;2024-01-11T02:21:06;33.88;32.57;35.25;;
66399;Laerm;54877;51.504;3.894;2024-01-11T02:23:36;33.94;32.54;46.62;;
66399;Laerm;54877;51.504;3.894;2024-01-11T02:26:05;33.89;32.48;35.17;;
66399;Laerm;54877;51.504;3.894;2024-01-11T02:28:31;33.85;32.59;35.10;;
66399;Laerm;54877;51.504;3.894;2024-01-11T02:30:56;35.69;32.58;49.03;;
66399;Laerm;54877;51.504;3.894;2024-01-11T02:33:22;33.88;32.57;35.97;;
66399;Laerm;54877;51.504;3.894;2024-01-11T02:35:47;33.89;32.44;35.30;;
66399;Laerm;54877;51.504;3.894;2024-01-11T02:38:13;33.90;32.61;35.14;;
66399;Laerm;54877;51.504;3.894;2024-01-11T02:40:40;33.94;32.57;35.25;;
66399;Laerm;54877;51.504;3.894;2024-01-11T02:43:09;33.97;32.58;37.57;;
66399;Laerm;54877;51.504;3.894;2024-01-11T02:45:35;33.89;32.49;35.53;;
66399;Laerm;54877;51.504;3.894;2024-01-11T02:48:00;33.91;32.64;35.13;;
66399;Laerm;54877;51.504;3.894;2024-01-11T02:50:26;33.93;32.46;35.25;;
66399;Laerm;54877;51.504;3.894;2024-01-11T02:52:51;34.04;32.76;36.04;;
66399;Laerm;54877;51.504;3.894;2024-01-11T02:55:16;33.92;32.46;35.18;;
66399;Laerm;54877;51.504;3.894;2024-01-11T02:57:42;33.90;32.62;35.37;;
66399;Laerm;54877;51.504;3.894;2024-01-11T03:00:07;33.94;32.53;35.36;;
66399;Laerm;54877;51.504;3.894;2024-01-11T03:02:33;34.12;32.58;42.23;;
66399;Laerm;54877;51.504;3.894;2024-01-11T03:04:58;34.44;32.53;42.94;;
66399;Laerm;54877;51.504;3.894;2024-01-11T03:07:23;34.53;32.64;45.66;;
66399;Laerm;54877;51.504;3.894;2024-01-11T03:09:49;34.34;32.56;44.04;;
66399;Laerm;54877;51.504;3.894;2024-01-11T03:12:14;34.29;32.82;44.10;;
66399;Laerm;54877;51.504;3.894;2024-01-11T03:14:39;34.28;32.79;45.52;;
66399;Laerm;54877;51.504;3.894;2024-01-11T03:17:05;34.26;32.83;46.94;;
66399;Laerm;54877;51.504;3.894;2024-01-11T03:19:31;34.27;32.63;43.18;;
66399;Laerm;54877;51.504;3.894;2024-01-11T03:21:56;34.29;32.67;47.09;;
66399;Laerm;54877;51.504;3.894;2024-01-11T03:24:21;34.34;32.75;46.40;;
66399;Laerm;54877;51.504;3.894;2024-01-11T03:26:47;34.28;32.78;45.79;;
66399;Laerm;54877;51.504;3.894;2024-01-11T03:29:13;34.45;32.67;45.70;;
66399;Laerm;54877;51.504;3.894;2024-01-11T03:31:38;34.38;32.64;49.97;;
66399;Laerm;54877;51.504;3.894;2024-01-11T03:34:07;34.75;32.41;45.67;;
66399;Laerm;54877;51.504;3.894;2024-01-11T03:36:32;34.19;32.56;48.38;;
66399;Laerm;54877;51.504;3.894;2024-01-11T03:38:58;34.09;32.48;49.24;;
66399;Laerm;54877;51.504;3.894;2024-01-11T03:41:23;34.61;32.26;50.71;;
66399;Laerm;54877;51.504;3.894;2024-01-11T03:43:51;34.52;32.55;46.75;;
66399;Laerm;54877;51.504;3.894;2024-01-11T03:46:17;34.44;32.75;47.64;;
66399;Laerm;54877;51.504;3.894;2024-01-11T03:48:42;34.13;32.68;40.53;;
66399;Laerm;54877;51.504;3.894;2024-01-11T03:51:07;34.54;32.61;55.18;;
66399;Laerm;54877;51.504;3.894;2024-01-11T03:53:36;34.32;32.63;53.81;;
66399;Laerm;54877;51.504;3.894;2024-01-11T03:56:02;34.58;32.54;42.68;;
66399;Laerm;54877;51.504;3.894;2024-01-11T03:58:28;34.10;32.36;40.14;;
66399;Laerm;54877;51.504;3.894;2024-01-11T04:00:53;33.90;32.59;35.66;;
66399;Laerm;54877;51.504;3.894;2024-01-11T04:03:19;33.92;32.39;37.29;;
66399;Laerm;54877;51.504;3.894;2024-01-11T04:05:44;33.90;32.50;35.14;;
66399;Laerm;54877;51.504;3.894;2024-01-11T04:08:09;33.91;32.54;37.23;;
66399;Laerm;54877;51.504;3.894;2024-01-11T04:10:35;33.89;32.38;35.14;;
66399;Laerm;54877;51.504;3.894;2024-01-11T04:13:00;33.98;32.54;36.50;;
66399;Laerm;54877;51.504;3.894;2024-01-11T04:15:26;48.25;32.61;68.31;;
66399;Laerm;54877;51.504;3.894;2024-01-11T04:17:51;33.89;32.54;35.44;;
66399;Laerm;54877;51.504;3.894;2024-01-11T04:20:17;33.91;32.60;35.29;;
66399;Laerm;54877;51.504;3.894;2024-01-11T04:22:42;33.91;32.41;35.19;;
66399;Laerm;54877;51.504;3.894;2024-01-11T04:25:08;33.91;32.45;35.46;;
66399;Laerm;54877;51.504;3.894;2024-01-11T04:27:33;34.00;32.72;35.49;;
66399;Laerm;54877;51.504;3.894;2024-01-11T04:29:58;33.88;32.61;35.17;;
66399;Laerm;54877;51.504;3.894;2024-01-11T04:32:24;33.89;32.73;35.52;;
66399;Laerm;54877;51.504;3.894;2024-01-11T04:34:49;33.91;32.46;35.20;;
66399;Laerm;54877;51.504;3.894;2024-01-11T04:37:14;33.91;32.35;35.29;;
66399;Laerm;54877;51.504;3.894;2024-01-11T04:39:40;33.88;32.62;36.25;;
66399;Laerm;54877;51.504;3.894;2024-01-11T04:42:05;33.94;32.48;36.37;;
66399;Laerm;54877;51.504;3.894;2024-01-11T04:44:31;33.99;32.62;41.11;;
66399;Laerm;54877;51.504;3.894;2024-01-11T04:46:56;34.17;32.56;36.22;;
66399;Laerm;54877;51.504;3.894;2024-01-11T04:49:22;34.03;32.50;36.24;;
66399;Laerm;54877;51.504;3.894;2024-01-11T04:51:47;34.06;32.34;39.12;;
66399;Laerm;54877;51.504;3.894;2024-01-11T04:54:12;34.13;32.59;37.44;;
66399;Laerm;54877;51.504;3.894;2024-01-11T04:56:38;37.65;32.54;64.22;;
66399;Laerm;54877;51.504;3.894;2024-01-11T04:59:03;36.94;32.81;58.37;;
66399;Laerm;54877;51.504;3.894;2024-01-11T05:01:28;34.31;32.90;40.76;;
66399;Laerm;54877;51.504;3.894;2024-01-11T05:03:53;34.16;32.80;41.62;;
66399;Laerm;54877;51.504;3.894;2024-01-11T05:06:20;34.31;32.77;41.63;;
66399;Laerm;54877;51.504;3.894;2024-01-11T05:08:46;34.22;32.78;35.81;;
66399;Laerm;54877;51.504;3.894;2024-01-11T05:11:19;34.09;32.75;37.13;;
66399;Laerm;54877;51.504;3.894;2024-01-11T05:13:44;35.03;32.70;43.43;;
66399;Laerm;54877;51.504;3.894;2024-01-11T05:16:23;34.58;32.97;49.86;;
66399;Laerm;54877;51.504;3.894;2024-01-11T05:18:52;34.26;32.87;38.81;;
66399;Laerm;54877;51.504;3.894;2024-01-11T05:21:18;34.39;32.43;42.38;;
66399;Laerm;54877;51.504;3.894;2024-01-11T05:23:44;34.64;32.80;40.26;;
66399;Laerm;54877;51.504;3.894;2024-01-11T05:26:10;34.30;32.69;45.30;;
66399;Laerm;54877;51.504;3.894;2024-01-11T05:28:36;34.41;32.68;37.98;;
66399;Laerm;54877;51.504;3.894;2024-01-11T05:31:01;34.29;32.91;38.46;;
66399;Laerm;54877;51.504;3.894;2024-01-11T05:33:27;54.60;32.71;74.75;;
66399;Laerm;54877;51.504;3.894;2024-01-11T05:35:52;34.84;33.27;48.86;;
66399;Laerm;54877;51.504;3.894;2024-01-11T05:38:19;34.79;33.11;44.87;;
66399;Laerm;54877;51.504;3.894;2024-01-11T05:40:44;34.64;32.92;42.23;;
66399;Laerm;54877;51.504;3.894;2024-01-11T05:43:10;34.80;32.71;42.81;;
66399;Laerm;54877;51.504;3.894;2024-01-11T05:45:36;49.16;33.21;68.63;;
66399;Laerm;54877;51.504;3.894;2024-01-11T05:48:02;34.56;33.07;37.79;;
66399;Laerm;54877;51.504;3.894;2024-01-11T05:50:27;34.79;33.04;39.56;;
66399;Laerm;54877;51.504;3.894;2024-01-11T05:52:52;35.18;33.27;41.86;;
66399;Laerm;54877;51.504;3.894;2024-01-11T05:55:19;37.43;33.25;55.51;;
66399;Laerm;54877;51.504;3.894;2024-01-11T05:57:44;35.12;33.27;43.68;;
66399;Laerm;54877;51.504;3.894;2024-01-11T06:00:11;36.21;33.52;51.35;;
66399;Laerm;54877;51.504;3.894;2024-01-11T06:02:36;34.86;33.29;39.87;;
66399;Laerm;54877;51.504;3.894;2024-01-11T06:05:02;35.13;33.36;41.05;;
66399;Laerm;54877;51.504;3.894;2024-01-11T06:07:27;35.96;33.29;51.37;;
66399;Laerm;54877;51.504;3.894;2024-01-11T06:09:53;35.14;33.07;43.65;;
66399;Laerm;54877;51.504;3.894;2024-01-11T06:12:18;35.49;33.20;47.86;;
66399;Laerm;54877;51.504;3.894;2024-01-11T06:14:43;51.42;33.25;71.04;;
66399;Laerm;54877;51.504;3.894;2024-01-11T06:17:09;50.53;33.50;69.29;;
66399;Laerm;54877;51.504;3.894;2024-01-11T06:19:37;35.71;33.43;40.68;;
66399;Laerm;54877;51.504;3.894;2024-01-11T06:22:03;53.37;33.70;72.01;;
66399;Laerm;54877;51.504;3.894;2024-01-11T06:24:28;53.58;33.77;71.71;;
66399;Laerm;54877;51.504;3.894;2024-01-11T06:26:53;35.77;33.61;41.42;;
66399;Laerm;54877;51.504;3.894;2024-01-11T06:29:19;36.30;33.80;44.90;;
66399;Laerm;54877;51.504;3.894;2024-01-11T06:31:44;43.76;33.93;75.04;;
66399;Laerm;54877;51.504;3.894;2024-01-11T06:34:09;39.25;33.79;66.86;;
66399;Laerm;54877;51.504;3.894;2024-01-11T06:36:35;48.80;33.78;66.99;;
66399;Laerm;54877;51.504;3.894;2024-01-11T06:39:00;38.34;33.78;52.37;;
66399;Laerm;54877;51.504;3.894;2024-01-11T06:41:26;51.82;34.19;69.89;;
66399;Laerm;54877;51.504;3.894;2024-01-11T06:43:51;50.85;40.59;65.90;;
66399;Laerm;54877;51.504;3.894;2024-01-11T06:46:20;47.22;34.37;64.91;;
66399;Laerm;54877;51.504;3.894;2024-01-11T06:48:47;42.89;34.82;63.12;;
66399;Laerm;54877;51.504;3.894;2024-01-11T06:51:16;54.29;34.74;71.08;;
66399;Laerm;54877;51.504;3.894;2024-01-11T06:53:41;49.44;36.19;67.43;;
66399;Laerm;54877;51.504;3.894;2024-01-11T06:56:18;50.16;33.74;68.00;;
66399;Laerm;54877;51.504;3.894;2024-01-11T06:58:44;51.35;33.46;72.13;;
66399;Laerm;54877;51.504;3.894;2024-01-11T07:01:10;39.03;33.83;60.40;;
66399;Laerm;54877;51.504;3.894;2024-01-11T07:03:35;39.53;33.72;54.93;;
66399;Laerm;54877;51.504;3.894;2024-01-11T07:06:01;47.64;34.22;68.29;;
66399;Laerm;54877;51.504;3.894;2024-01-11T07:08:26;55.62;33.97;74.59;;
66399;Laerm;54877;51.504;3.894;2024-01-11T07:10:52;38.96;34.16;55.31;;
66399;Laerm;54877;51.504;3.894;2024-01-11T07:13:17;36.93;33.94;56.45;;
66399;Laerm;54877;51.504;3.894;2024-01-11T07:15:43;57.00;34.10;75.05;;
66399;Laerm;54877;51.504;3.894;2024-01-11T07:18:09;46.39;33.98;65.38;;
66399;Laerm;54877;51.504;3.894;2024-01-11T07:20:34;49.71;34.30;69.24;;
66399;Laerm;54877;51.504;3.894;2024-01-11T07:22:59;40.26;34.31;61.29;;
66399;Laerm;54877;51.504;3.894;2024-01-11T07:25:25;49.80;34.52;65.82;;
66399;Laerm;54877;51.504;3.894;2024-01-11T07:27:50;43.21;34.22;58.55;;
66399;Laerm;54877;51.504;3.894;2024-01-11T07:30:16;50.43;34.29;67.01;;
66399;Laerm;54877;51.504;3.894;2024-01-11T07:32:42;54.62;34.28;73.60;;
66399;Laerm;54877;51.504;3.894;2024-01-11T07:35:08;40.97;34.40;61.92;;
66399;Laerm;54877;51.504;3.894;2024-01-11T07:37:36;49.40;34.93;68.60;;
66399;Laerm;54877;51.504;3.894;2024-01-11T07:40:01;49.55;34.01;67.30;;
66399;Laerm;54877;51.504;3.894;2024-01-11T07:42:28;48.70;34.75;66.45;;
66399;Laerm;54877;51.504;3.894;2024-01-11T07:44:54;50.59;34.41;69.93;;
66399;Laerm;54877;51.504;3.894;2024-01-11T07:47:19;36.35;34.04;45.57;;
66399;Laerm;54877;51.504;3.894;2024-01-11T07:49:45;50.03;34.21;69.53;;
66399;Laerm;54877;51.504;3.894;2024-01-11T07:52:10;40.52;34.37;69.10;;
66399;Laerm;54877;51.504;3.894;2024-01-11T07:54:35;51.24;34.28;68.20;;
66399;Laerm;54877;51.504;3.894;2024-01-11T07:57:01;43.87;34.28;73.80;;
66399;Laerm;54877;51.504;3.894;2024-01-11T07:59:31;38.79;34.23;56.07;;
66399;Laerm;54877;51.504;3.894;2024-01-11T08:01:57;49.15;34.44;65.54;;
66399;Laerm;54877;51.504;3.894;2024-01-11T08:04:23;40.80;34.02;67.47;;
66399;Laerm;54877;51.504;3.894;2024-01-11T08:06:48;47.12;34.04;76.93;;
66399;Laerm;54877;51.504;3.894;2024-01-11T08:09:13;40.22;33.94;65.70;;
66399;Laerm;54877;51.504;3.894;2024-01-11T08:11:39;44.60;33.57;61.05;;
66399;Laerm;54877;51.504;3.894;2024-01-11T08:14:06;53.51;33.70;69.88;;
66399;Laerm;54877;51.504;3.894;2024-01-11T08:16:31;46.39;34.07;65.02;;
66399;Laerm;54877;51.504;3.894;2024-01-11T08:18:57;45.02;34.03;64.42;;
66399;Laerm;54877;51.504;3.894;2024-01-11T08:21:22;47.75;34.20;64.67;;
66399;Laerm;54877;51.504;3.894;2024-01-11T08:23:47;44.92;33.73;64.13;;
66399;Laerm;54877;51.504;3.894;2024-01-11T08:26:17;46.64;34.06;65.23;;
66399;Laerm;54877;51.504;3.894;2024-01-11T08:28:46;46.79;33.55;64.41;;
66399;Laerm;54877;51.504;3.894;2024-01-11T08:31:12;51.41;34.19;71.75;;
66399;Laerm;54877;51.504;3.894;2024-01-11T08:33:37;47.28;33.68;67.42;;
66399;Laerm;54877;51.504;3.894;2024-01-11T08:36:04;47.21;33.88;66.98;;
66399;Laerm;54877;51.504;3.894;2024-01-11T08:38:30;39.16;33.72;53.90;;
66399;Laerm;54877;51.504;3.894;2024-01-11T08:40:55;51.13;33.80;71.26;;
66399;Laerm;54877;51.504;3.894;2024-01-11T08:43:21;36.92;33.79;57.31;;
66399;Laerm;54877;51.504;3.894;2024-01-11T08:45:46;48.90;33.16;67.10;;
66399;Laerm;54877;51.504;3.894;2024-01-11T08:48:12;48.03;33.48;63.55;;
66399;Laerm;54877;51.504;3.894;2024-01-11T08:50:37;36.80;33.52;50.00;;
66399;Laerm;54877;51.504;3.894;2024-01-11T08:53:03;36.58;33.40;58.86;;
66399;Laerm;54877;51.504;3.894;2024-01-11T08:55:28;36.12;33.46;49.19;;
66399;Laerm;54877;51.504;3.894;2024-01-11T08:57:53;36.49;33.43;51.52;;
66399;Laerm;54877;51.504;3.894;2024-01-11T09:00:19;36.34;33.76;51.76;;
66399;Laerm;54877;51.504;3.894;2024-01-11T09:02:44;39.23;33.55;51.47;;
66399;Laerm;54877;51.504;3.894;2024-01-11T09:05:11;36.45;33.95;50.56;;
66399;Laerm;54877;51.504;3.894;2024-01-11T09:07:36;45.63;33.82;65.08;;
66399;Laerm;54877;51.504;3.894;2024-01-11T09:10:02;36.01;33.75;43.56;;
66399;Laerm;54877;51.504;3.894;2024-01-11T09:12:28;53.55;33.96;72.15;;
66399;Laerm;54877;51.504;3.894;2024-01-11T09:14:53;49.65;33.97;65.26;;
66399;Laerm;54877;51.504;3.894;2024-01-11T09:17:18;52.40;33.80;71.59;;
66399;Laerm;54877;51.504;3.894;2024-01-11T09:19:44;42.36;34.05;62.30;;
66399;Laerm;54877;51.504;3.894;2024-01-11T09:22:09;47.13;34.20;63.47;;
66399;Laerm;54877;51.504;3.894;2024-01-11T09:24:35;50.29;34.25;69.24;;
66399;Laerm;54877;51.504;3.894;2024-01-11T09:27:01;52.69;34.08;72.82;;
66399;Laerm;54877;51.504;3.894;2024-01-11T09:29:26;40.71;33.44;61.57;;
66399;Laerm;54877;51.504;3.894;2024-01-11T09:31:53;56.13;34.92;73.41;;
66399;Laerm;54877;51.504;3.894;2024-01-11T09:34:18;38.48;34.42;51.75;;
66399;Laerm;54877;51.504;3.894;2024-01-11T09:36:43;43.05;34.68;61.07;;
66399;Laerm;54877;51.504;3.894;2024-01-11T09:39:10;44.48;33.80;64.90;;
66399;Laerm;54877;51.504;3.894;2024-01-11T09:41:41;48.43;34.20;70.01;;
66399;Laerm;54877;51.504;3.894;2024-01-11T09:44:09;48.01;34.04;66.37;;
66399;Laerm;54877;51.504;3.894;2024-01-11T09:46:35;49.48;33.81;68.78;;
66399;Laerm;54877;51.504;3.894;2024-01-11T09:49:02;44.93;34.42;63.56;;
66399;Laerm;54877;51.504;3.894;2024-01-11T09:51:29;49.79;34.10;68.36;;
66399;Laerm;54877;51.504;3.894;2024-01-11T09:53:55;38.69;34.14;50.62;;
66399;Laerm;54877;51.504;3.894;2024-01-11T09:56:22;41.33;34.35;58.75;;
66399;Laerm;54877;51.504;3.894;2024-01-11T09:58:49;37.61;34.15;56.00;;
66399;Laerm;54877;51.504;3.894;2024-01-11T10:01:15;37.42;33.97;47.11;;
66399;Laerm;54877;51.504;3.894;2024-01-11T10:03:40;39.48;34.27;63.27;;
66399;Laerm;54877;51.504;3.894;2024-01-11T10:06:09;48.45;34.60;66.71;;
66399;Laerm;54877;51.504;3.894;2024-01-11T10:08:35;52.87;34.69;72.17;;
66399;Laerm;54877;51.504;3.894;2024-01-11T10:11:00;55.36;34.21;70.27;;
66399;Laerm;54877;51.504;3.894;2024-01-11T10:13:30;60.74;37.38;76.66;;
66399;Laerm;54877;51.504;3.894;2024-01-11T10:16:12;48.55;34.59;65.03;;
66399;Laerm;54877;51.504;3.894;2024-01-11T10:18:43;54.06;34.93;74.55;;
66399;Laerm;54877;51.504;3.894;2024-01-11T10:21:09;53.08;34.67;70.88;;
66399;Laerm;54877;51.504;3.894;2024-01-11T10:23:35;50.41;34.21;69.92;;
66399;Laerm;54877;51.504;3.894;2024-01-11T10:26:01;49.87;34.46;70.55;;
66399;Laerm;54877;51.504;3.894;2024-01-11T10:28:27;57.96;34.10;76.30;;
66399;Laerm;54877;51.504;3.894;2024-01-11T10:30:54;37.49;33.75;56.53;;
66399;Laerm;54877;51.504;3.894;2024-01-11T10:33:20;41.84;34.19;52.76;;
66399;Laerm;54877;51.504;3.894;2024-01-11T10:35:49;44.86;34.06;59.30;;
66399;Laerm;54877;51.504;3.894;2024-01-11T10:38:15;46.92;34.25;64.00;;
66399;Laerm;54877;51.504;3.894;2024-01-11T10:40:42;37.75;33.88;62.17;;
66399;Laerm;54877;51.504;3.894;2024-01-11T10:43:09;40.78;34.24;59.72;;
66399;Laerm;54877;51.504;3.894;2024-01-11T10:45:38;50.12;34.52;67.29;;
66399;Laerm;54877;51.504;3.894;2024-01-11T10:48:07;44.82;34.92;56.59;;
66399;Laerm;54877;51.504;3.894;2024-01-11T10:50:41;40.71;34.16;58.91;;
66399;Laerm;54877;51.504;3.894;2024-01-11T10:55:55;40.15;34.38;61.93;;
66399;Laerm;54877;51.504;3.894;2024-01-11T10:58:22;54.89;34.37;75.45;;
66399;Laerm;54877;51.504;3.894;2024-01-11T11:00:49;37.52;34.28;54.64;;
66399;Laerm;54877;51.504;3.894;2024-01-11T11:03:17;42.37;34.55;71.05;;
66399;Laerm;54877;51.504;3.894;2024-01-11T11:05:44;43.83;35.19;71.98;;
66399;Laerm;54877;51.504;3.894;2024-01-11T11:08:12;48.62;34.52;68.07;;
66399;Laerm;54877;51.504;3.894;2024-01-11T11:10:39;41.72;35.15;61.27;;
66399;Laerm;54877;51.504;3.894;2024-01-11T11:13:05;50.10;34.40;70.55;;
66399;Laerm;54877;51.504;3.894;2024-01-11T11:15:32;44.35;35.02;59.41;;
66399;Laerm;54877;51.504;3.894;2024-01-11T11:17:58;38.38;34.98;50.81;;
66399;Laerm;54877;51.504;3.894;2024-01-11T11:20:26;38.07;34.48;52.54;;
66399;Laerm;54877;51.504;3.894;2024-01-11T11:23:06;49.58;34.45;71.39;;
66399;Laerm;54877;51.504;3.894;2024-01-11T11:25:32;47.99;35.08;68.48;;
66399;Laerm;54877;51.504;3.894;2024-01-11T11:27:58;43.90;34.68;64.17;;
66399;Laerm;54877;51.504;3.894;2024-01-11T11:30:27;51.45;34.80;71.04;;
66399;Laerm;54877;51.504;3.894;2024-01-11T11:32:54;39.44;34.42;53.20;;
66399;Laerm;54877;51.504;3.894;2024-01-11T11:35:22;38.36;34.10;57.38;;
66399;Laerm;54877;51.504;3.894;2024-01-11T11:37:48;51.18;34.31;72.39;;
66399;Laerm;54877;51.504;3.894;2024-01-11T11:40:15;46.78;33.98;62.72;;
66399;Laerm;54877;51.504;3.894;2024-01-11T11:42:41;51.34;33.96;70.91;;
66399;Laerm;54877;51.504;3.894;2024-01-11T11:45:08;51.33;35.10;72.83;;
66399;Laerm;54877;51.504;3.894;2024-01-11T11:47:36;39.42;34.09;50.84;;
66399;Laerm;54877;51.504;3.894;2024-01-11T11:50:10;44.37;35.56;60.94;;
66399;Laerm;54877;51.504;3.894;2024-01-11T11:52:39;56.04;34.85;73.75;;
66399;Laerm;54877;51.504;3.894;2024-01-11T11:55:06;52.44;36.61;70.33;;
66399;Laerm;54877;51.504;3.894;2024-01-11T11:57:33;50.45;35.50;69.14;;
66399;Laerm;54877;51.504;3.894;2024-01-11T11:59:58;52.39;34.82;68.53;;
66399;Laerm;54877;51.504;3.894;2024-01-11T12:02:26;39.01;34.24;50.77;;
66399;Laerm;54877;51.504;3.894;2024-01-11T12:04:52;54.07;34.81;74.98;;
66399;Laerm;54877;51.504;3.894;2024-01-11T12:07:19;41.47;33.53;66.39;;
66399;Laerm;54877;51.504;3.894;2024-01-11T12:09:46;50.39;35.07;67.42;;
66399;Laerm;54877;51.504;3.894;2024-01-11T12:12:12;54.68;35.04;72.08;;
66399;Laerm;54877;51.504;3.894;2024-01-11T12:14:38;42.91;35.12;72.73;;
66399;Laerm;54877;51.504;3.894;2024-01-11T12:17:03;42.03;35.10;70.03;;
66399;Laerm;54877;51.504;3.894;2024-01-11T12:19:29;49.25;34.67;65.74;;
66399;Laerm;54877;51.504;3.894;2024-01-11T12:21:54;44.24;34.90;71.27;;
66399;Laerm;54877;51.504;3.894;2024-01-11T12:24:20;53.64;36.26;72.20;;
66399;Laerm;54877;51.504;3.894;2024-01-11T12:26:47;41.01;34.92;60.16;;
66399;Laerm;54877;51.504;3.894;2024-01-11T12:29:13;49.58;34.48;68.12;;
66399;Laerm;54877;51.504;3.894;2024-01-11T12:31:38;53.16;35.23;70.49;;
66399;Laerm;54877;51.504;3.894;2024-01-11T12:34:04;38.97;34.49;61.08;;
66399;Laerm;54877;51.504;3.894;2024-01-11T12:36:30;47.72;34.78;65.97;;
66399;Laerm;54877;51.504;3.894;2024-01-11T12:38:57;47.87;35.07;66.30;;
66399;Laerm;54877;51.504;3.894;2024-01-11T12:41:24;48.33;34.45;69.47;;
66399;Laerm;54877;51.504;3.894;2024-01-11T12:43:49;41.72;34.64;62.11;;
66399;Laerm;54877;51.504;3.894;2024-01-11T12:46:15;40.34;34.44;69.98;;
66399;Laerm;54877;51.504;3.894;2024-01-11T12:48:41;38.74;34.61;53.61;;
66399;Laerm;54877;51.504;3.894;2024-01-11T12:51:06;48.54;34.56;66.84;;
66399;Laerm;54877;51.504;3.894;2024-01-11T12:53:32;39.02;34.37;55.84;;
66399;Laerm;54877;51.504;3.894;2024-01-11T12:56:07;54.54;35.46;73.89;;
66399;Laerm;54877;51.504;3.894;2024-01-11T12:58:37;48.15;34.53;65.65;;
66399;Laerm;54877;51.504;3.894;2024-01-11T13:01:04;48.58;34.77;67.26;;
66399;Laerm;54877;51.504;3.894;2024-01-11T13:03:29;52.16;34.36;67.07;;
66399;Laerm;54877;51.504;3.894;2024-01-11T13:05:56;49.93;34.90;67.92;;
66399;Laerm;54877;51.504;3.894;2024-01-11T13:08:21;49.45;34.36;66.91;;
66399;Laerm;54877;51.504;3.894;2024-01-11T13:10:47;53.09;34.81;67.97;;
66399;Laerm;54877;51.504;3.894;2024-01-11T13:13:13;50.25;34.84;64.63;;
66399;Laerm;54877;51.504;3.894;2024-01-11T13:15:39;48.60;34.44;68.05;;
66399;Laerm;54877;51.504;3.894;2024-01-11T13:18:04;39.73;34.05;52.87;;
66399;Laerm;54877;51.504;3.894;2024-01-11T13:20:30;51.02;34.28;68.07;;
66399;Laerm;54877;51.504;3.894;2024-01-11T13:23:15;51.62;34.16;71.56;;
66399;Laerm;54877;51.504;3.894;2024-01-11T13:25:41;42.42;34.19;61.04;;
66399;Laerm;54877;51.504;3.894;2024-01-11T13:28:07;42.55;34.65;68.59;;
66399;Laerm;54877;51.504;3.894;2024-01-11T13:30:33;37.30;34.12;51.95;;
66399;Laerm;54877;51.504;3.894;2024-01-11T13:32:59;44.20;34.25;60.74;;
66399;Laerm;54877;51.504;3.894;2024-01-11T13:35:24;38.21;33.94;56.25;;
66399;Laerm;54877;51.504;3.894;2024-01-11T13:37:50;36.40;33.91;43.62;;
66399;Laerm;54877;51.504;3.894;2024-01-11T13:40:16;38.95;34.28;53.50;;